createdAt,value
2024-05-09T00:00:41.227Z,98769.81
2024-05-09T00:03:10.248Z,98773.16
2024-05-09T00:05:41.547Z,98766.06
2024-05-09T00:08:12.340Z,98764.19
2024-05-09T00:10:40.821Z,98772.50
2024-05-09T00:13:08.799Z,98769.41
2024-05-09T00:15:36.600Z,98770.28
2024-05-09T00:18:05.547Z,98767.00
2024-05-09T00:20:38.538Z,98765.13
2024-05-09T00:23:09.365Z,98764.69
2024-05-09T00:25:37.779Z,98756.59
2024-05-09T00:28:05.449Z,98763.34
2024-05-09T00:30:35.600Z,98764.56
2024-05-09T00:33:06.537Z,98763.13
2024-05-09T00:35:35.231Z,98767.13
2024-05-09T00:38:02.378Z,98765.34
2024-05-09T00:40:39.743Z,98774.91
2024-05-09T00:43:10.066Z,98774.00
2024-05-09T00:45:37.244Z,98773.00
2024-05-09T00:48:07.708Z,98767.13
2024-05-09T00:50:41.508Z,98761.28
2024-05-09T00:53:11.994Z,98766.59
2024-05-09T00:55:40.244Z,98774.56
2024-05-09T00:58:09.967Z,98766.03
2024-05-09T01:00:40.018Z,98773.69
2024-05-09T01:03:13.497Z,98766.69
2024-05-09T01:05:43.631Z,98769.91
2024-05-09T01:08:11.923Z,98769.22
2024-05-09T01:10:42.610Z,98762.97
2024-05-09T01:13:11.639Z,98770.13
2024-05-09T01:15:38.508Z,98770.91
2024-05-09T01:18:11.012Z,98773.31
2024-05-09T01:20:42.466Z,98778.06
2024-05-09T01:23:12.774Z,98778.25
2024-05-09T01:25:40.855Z,98769.66
2024-05-09T01:28:07.800Z,98773.63
2024-05-09T01:30:37.106Z,98781.25
2024-05-09T01:33:10.367Z,98765.53
2024-05-09T01:35:41.478Z,98771.97
2024-05-09T01:38:10.043Z,98767.28
2024-05-09T01:40:39.884Z,98766.28
2024-05-09T01:43:09.756Z,98764.72
2024-05-09T01:45:38.668Z,98774.28
2024-05-09T01:48:06.700Z,98767.19
2024-05-09T01:50:39.225Z,98772.28
2024-05-09T01:53:15.002Z,98775.13
2024-05-09T01:55:42.573Z,98768.94
2024-05-09T01:58:10.052Z,98777.53
2024-05-09T02:00:40.925Z,98772.78
2024-05-09T02:03:13.566Z,98765.63
2024-05-09T02:05:44.493Z,98774.34
2024-05-09T02:08:20.127Z,98777.53
2024-05-09T02:10:48.642Z,98776.03
2024-05-09T02:13:16.422Z,98780.00
2024-05-09T02:15:43.584Z,98779.66
2024-05-09T02:18:11.098Z,98783.97
2024-05-09T02:20:40.898Z,98778.78
2024-05-09T02:23:08.886Z,98780.53
2024-05-09T02:25:35.924Z,98779.22
2024-05-09T02:28:03.009Z,98777.66
2024-05-09T02:30:38.717Z,98780.19
2024-05-09T02:33:10.931Z,98777.19
2024-05-09T02:35:39.996Z,98775.28
2024-05-09T02:38:07.032Z,98780.38
2024-05-09T02:40:37.880Z,98766.25
2024-05-09T02:43:08.300Z,98767.13
2024-05-09T02:45:36.016Z,98773.53
2024-05-09T02:48:03.202Z,98768.84
2024-05-09T02:50:37.281Z,98768.97
2024-05-09T02:53:10.280Z,98769.81
2024-05-09T02:55:41.739Z,98770.59
2024-05-09T02:58:09.908Z,98767.84
2024-05-09T03:00:40.594Z,98766.03
2024-05-09T03:03:12.898Z,98770.38
2024-05-09T03:05:47.314Z,98768.91
2024-05-09T03:08:14.621Z,98765.81
2024-05-09T03:10:41.776Z,98765.50
2024-05-09T03:13:14.487Z,98767.78
2024-05-09T03:15:43.019Z,98776.53
2024-05-09T03:18:13.070Z,98771.88
2024-05-09T03:20:40.547Z,98769.09
2024-05-09T03:23:09.357Z,98775.06
2024-05-09T03:25:37.739Z,98778.28
2024-05-09T03:28:05.728Z,98779.03
2024-05-09T03:30:40.056Z,98772.75
2024-05-09T03:33:20.168Z,98770.84
2024-05-09T03:35:51.026Z,98773.72
2024-05-09T03:38:18.535Z,98771.03
2024-05-09T03:40:47.265Z,98769.94
2024-05-09T03:43:14.810Z,98769.56
2024-05-09T03:45:47.680Z,98770.34
2024-05-09T03:48:14.873Z,98773.47
2024-05-09T03:50:42.055Z,98766.91
2024-05-09T03:53:13.497Z,98764.47
2024-05-09T03:55:40.985Z,98767.25
2024-05-09T03:58:08.699Z,98758.97
2024-05-09T04:00:39.290Z,98747.84
2024-05-09T04:03:10.363Z,98754.63
2024-05-09T04:05:45.016Z,98760.63
2024-05-09T04:08:12.150Z,98767.94
2024-05-09T04:10:39.319Z,98762.75
2024-05-09T04:13:06.310Z,98759.00
2024-05-09T04:15:33.335Z,98765.56
2024-05-09T04:18:01.304Z,98767.78
2024-05-09T04:20:36.715Z,98771.13
2024-05-09T04:23:08.379Z,98766.50
2024-05-09T04:25:36.202Z,98772.59
2024-05-09T04:28:03.280Z,98776.72
2024-05-09T04:30:36.844Z,98777.94
2024-05-09T04:33:08.879Z,98780.38
2024-05-09T04:35:38.998Z,98777.31
2024-05-09T04:38:06.607Z,98786.84
2024-05-09T04:40:36.322Z,98781.09
2024-05-09T04:43:14.338Z,98786.28
2024-05-09T04:45:41.666Z,98777.41
2024-05-09T04:48:09.060Z,98779.41
2024-05-09T04:50:38.774Z,98783.81
2024-05-09T04:53:09.413Z,98782.78
2024-05-09T04:55:37.738Z,98785.66
2024-05-09T04:58:05.675Z,98775.56
2024-05-09T05:00:37.111Z,98779.53
2024-05-09T05:03:10.201Z,98771.28
2024-05-09T05:05:43.579Z,98778.19
2024-05-09T05:08:16.647Z,98776.59
2024-05-09T05:10:44.711Z,98769.38
2024-05-09T05:13:25.182Z,98775.91
2024-05-09T05:15:57.510Z,98782.25
2024-05-09T05:18:27.513Z,98778.38
2024-05-09T05:21:01.037Z,98780.88
2024-05-09T05:23:28.163Z,98777.25
2024-05-09T05:25:55.752Z,98772.09
2024-05-09T05:28:23.182Z,98770.47
2024-05-09T05:30:50.304Z,98774.38
2024-05-09T05:33:22.994Z,98783.41
2024-05-09T05:35:50.458Z,98785.16
2024-05-09T05:38:17.423Z,98781.13
2024-05-09T05:40:47.040Z,98785.75
2024-05-09T05:43:18.514Z,98786.88
2024-05-09T05:45:46.400Z,98790.75
2024-05-09T05:48:16.708Z,98794.50
2024-05-09T05:50:44.680Z,98796.22
2024-05-09T05:53:11.649Z,98795.47
2024-05-09T05:55:42.850Z,98804.00
2024-05-09T05:58:11.190Z,98802.22
2024-05-09T06:00:40.341Z,98804.66
2024-05-09T06:03:09.720Z,98796.50
2024-05-09T06:05:39.967Z,98806.69
2024-05-09T06:08:07.789Z,98802.56
2024-05-09T06:10:38.958Z,98806.88
2024-05-09T06:13:11.472Z,98806.56
2024-05-09T06:15:39.882Z,98808.69
2024-05-09T06:18:09.068Z,98813.78
2024-05-09T06:20:38.249Z,98814.56
2024-05-09T06:23:10.356Z,98808.34
2024-05-09T06:25:37.582Z,98806.47
2024-05-09T06:28:05.168Z,98802.09
2024-05-09T06:30:39.349Z,98814.63
2024-05-09T06:33:11.793Z,98810.25
2024-05-09T06:35:40.927Z,98813.31
2024-05-09T06:38:11.850Z,98817.31
2024-05-09T06:40:41.738Z,98819.97
2024-05-09T06:43:18.216Z,98816.69
2024-05-09T06:45:48.671Z,98815.41
2024-05-09T06:48:19.319Z,98814.59
2024-05-09T06:50:46.901Z,98813.66
2024-05-09T06:53:21.069Z,98809.72
2024-05-09T06:55:48.206Z,98812.00
2024-05-09T06:58:15.828Z,98810.56
2024-05-09T07:00:42.849Z,98817.19
2024-05-09T07:03:13.083Z,98820.06
2024-05-09T07:05:42.348Z,98817.97
2024-05-09T07:08:09.584Z,98817.16
2024-05-09T07:10:37.180Z,98824.31
2024-05-09T07:13:12.297Z,98814.88
2024-05-09T07:15:40.383Z,98815.03
2024-05-09T07:18:18.600Z,98811.38
2024-05-09T07:20:48.033Z,98804.41
2024-05-09T07:23:16.237Z,98810.69
2024-05-09T07:25:43.360Z,98808.63
2024-05-09T07:28:18.417Z,98811.03
2024-05-09T07:30:45.922Z,98819.84
2024-05-09T07:33:22.298Z,98811.88
2024-05-09T07:35:50.630Z,98806.00
2024-05-09T07:38:17.579Z,98812.66
2024-05-09T07:40:44.568Z,98817.56
2024-05-09T07:43:14.731Z,98806.94
2024-05-09T07:45:51.259Z,98800.84
2024-05-09T07:52:37.874Z,98795.44
2024-05-09T07:53:47.666Z,98794.00
2024-05-09T07:56:19.703Z,98786.13
2024-05-09T07:58:49.955Z,98790.22
2024-05-09T08:01:17.004Z,98788.47
2024-05-09T08:03:44.452Z,98789.50
2024-05-09T08:06:11.506Z,98780.25
2024-05-09T08:08:38.315Z,98779.22
2024-05-09T08:11:06.712Z,98784.56
2024-05-09T08:13:33.694Z,98776.56
2024-05-09T08:16:00.856Z,98778.94
2024-05-09T08:18:27.996Z,98778.50
2024-05-09T08:20:54.996Z,98775.69
2024-05-09T08:23:23.702Z,98772.66
2024-05-09T08:25:50.891Z,98770.91
2024-05-09T08:28:17.945Z,98769.88
2024-05-09T08:30:45.318Z,98772.16
2024-05-09T08:33:12.631Z,98764.19
2024-05-09T08:35:39.650Z,98773.19
2024-05-09T08:38:07.774Z,98772.69
2024-05-09T08:40:36.976Z,98770.75
2024-05-09T08:43:11.452Z,98761.72
2024-05-09T08:45:44.127Z,98765.59
2024-05-09T08:48:15.090Z,98764.91
2024-05-09T08:50:44.798Z,98766.66
2024-05-09T08:53:12.740Z,98763.78
2024-05-09T08:55:43.238Z,98765.53
2024-05-09T08:58:16.615Z,98765.38
2024-05-09T09:00:45.574Z,98761.31
2024-05-09T09:03:19.921Z,98757.94
2024-05-09T09:05:59.247Z,98760.41
2024-05-09T09:08:26.597Z,98754.25
2024-05-09T09:10:58.153Z,98748.00
2024-05-09T09:13:26.407Z,98753.56
2024-05-09T09:15:57.759Z,98760.78
2024-05-09T09:18:26.868Z,98757.50
2024-05-09T09:20:53.996Z,98757.13
2024-05-09T09:23:21.235Z,98749.50
2024-05-09T09:25:48.142Z,98744.28
2024-05-09T09:28:15.539Z,98747.22
2024-05-09T09:30:43.589Z,98748.97
2024-05-09T09:33:11.794Z,98748.13
2024-05-09T09:35:40.783Z,98748.66
2024-05-09T09:38:10.259Z,98746.13
2024-05-09T09:40:46.730Z,98748.41
2024-05-09T09:43:22.028Z,98756.78
2024-05-09T09:45:55.370Z,98745.16
2024-05-09T09:48:23.246Z,98741.28
2024-05-09T09:50:52.866Z,98739.84
2024-05-09T09:53:20.079Z,98745.81
2024-05-09T09:55:48.450Z,98741.13
2024-05-09T09:58:18.137Z,98739.16
2024-05-09T10:00:45.638Z,98743.50
2024-05-09T10:03:12.846Z,98747.94
2024-05-09T10:05:42.116Z,98748.50
2024-05-09T10:08:13.129Z,98743.50
2024-05-09T10:10:40.299Z,98749.78
2024-05-09T10:13:08.697Z,98743.75
2024-05-09T10:15:53.383Z,98744.13
2024-05-09T10:18:29.192Z,98746.34
2024-05-09T10:20:59.692Z,98742.75
2024-05-09T10:23:29.644Z,98737.69
2024-05-09T10:26:00.982Z,98747.25
2024-05-09T10:28:29.915Z,98750.44
2024-05-09T10:31:14.521Z,98753.44
2024-05-09T10:33:51.012Z,98758.09
2024-05-09T10:36:21.922Z,98754.66
2024-05-09T10:38:50.666Z,98748.16
2024-05-09T10:41:19.443Z,98742.34
2024-05-09T10:43:47.794Z,98740.06
2024-05-09T10:46:15.805Z,98729.03
2024-05-09T10:48:44.528Z,98724.38
2024-05-09T10:51:12.071Z,98726.84
2024-05-09T10:53:46.477Z,98720.03
2024-05-09T10:56:14.926Z,98722.59
2024-05-09T10:58:41.966Z,98714.03
2024-05-09T11:01:10.404Z,98707.69
2024-05-09T11:03:39.018Z,98706.69
2024-05-09T11:06:07.292Z,98702.72
2024-05-09T11:08:35.259Z,98700.66
2024-05-09T11:11:07.816Z,98693.66
2024-05-09T11:13:38.079Z,98694.03
2024-05-09T11:16:15.884Z,98696.50
2024-05-09T11:18:43.508Z,98693.31
2024-05-09T11:21:14.049Z,98690.66
2024-05-09T11:23:41.464Z,98690.34
2024-05-09T11:26:09.265Z,98690.50
2024-05-09T11:28:36.326Z,98679.28
2024-05-09T11:31:08.033Z,98671.44
2024-05-09T11:33:41.320Z,98677.34
2024-05-09T11:36:09.637Z,98667.03
2024-05-09T11:38:36.829Z,98664.56
2024-05-09T11:41:05.072Z,98667.81
2024-05-09T11:43:32.298Z,98663.03
2024-05-09T11:46:00.252Z,98649.25
2024-05-09T11:48:27.758Z,98650.69
2024-05-09T11:50:56.824Z,98659.84
2024-05-09T11:53:24.176Z,98646.69
2024-05-09T11:55:51.117Z,98651.81
2024-05-09T11:58:19.157Z,98654.56
2024-05-09T12:00:46.951Z,98647.50
2024-05-09T12:03:14.540Z,98645.31
2024-05-09T12:05:41.838Z,98630.66
2024-05-09T12:08:08.976Z,98633.78
2024-05-09T12:10:36.964Z,98628.13
2024-05-09T12:13:06.341Z,98637.41
2024-05-09T12:15:37.525Z,98639.53
2024-05-09T12:18:07.598Z,98633.75
2024-05-09T12:20:38.450Z,98632.38
2024-05-09T12:23:09.979Z,98623.84
2024-05-09T12:25:38.935Z,98631.56
2024-05-09T12:28:07.203Z,98628.69
2024-05-09T12:30:38.448Z,98624.13
2024-05-09T12:33:12.710Z,98616.81
2024-05-09T12:35:41.762Z,98623.22
2024-05-09T12:38:09.868Z,98617.41
2024-05-09T12:40:38.676Z,98610.22
2024-05-09T12:43:08.635Z,98611.56
2024-05-09T12:45:37.356Z,98610.72
2024-05-09T12:48:07.512Z,98605.81
2024-05-09T12:50:35.070Z,98616.66
2024-05-09T12:53:03.918Z,98612.13
2024-05-09T12:55:40.480Z,98611.59
2024-05-09T12:58:16.834Z,98598.50
2024-05-09T13:00:45.251Z,98598.19
2024-05-09T13:03:12.471Z,98598.47
2024-05-09T13:05:41.538Z,98592.38
2024-05-09T13:08:09.250Z,98595.66
2024-05-09T13:10:36.977Z,98583.25
2024-05-09T13:13:04.479Z,98584.16
2024-05-09T13:15:31.675Z,98566.50
2024-05-09T13:18:02.230Z,98575.41
2024-05-09T13:20:34.458Z,98575.41
2024-05-09T13:23:08.248Z,98565.84
2024-05-09T13:25:37.129Z,98564.25
2024-05-09T13:28:05.548Z,98559.06
2024-05-09T13:30:40.089Z,98557.50
2024-05-09T13:33:14.032Z,98565.94
2024-05-09T13:35:48.790Z,98562.34
2024-05-09T13:38:21.345Z,98571.13
2024-05-09T13:40:49.049Z,98561.88
2024-05-09T13:43:17.679Z,98560.81
2024-05-09T13:45:44.954Z,98562.63
2024-05-09T13:48:12.429Z,98553.50
2024-05-09T13:50:39.641Z,98559.16
2024-05-09T13:53:07.803Z,98562.88
2024-05-09T13:55:38.630Z,98550.72
2024-05-09T13:58:06.442Z,98543.47
2024-05-09T14:00:44.011Z,98534.44
2024-05-09T14:03:20.041Z,98538.94
2024-05-09T14:05:49.987Z,98531.78
2024-05-09T14:08:19.952Z,98535.66
2024-05-09T14:10:48.488Z,98532.34
2024-05-09T14:13:16.161Z,98534.50
2024-05-09T14:15:43.484Z,98524.88
2024-05-09T14:18:13.428Z,98530.88
2024-05-09T14:20:42.102Z,98520.03
2024-05-09T14:23:09.275Z,98520.34
2024-05-09T14:25:40.354Z,98513.09
2024-05-09T14:28:10.243Z,98520.88
2024-05-09T14:30:38.761Z,98512.78
2024-05-09T14:33:07.243Z,98510.47
2024-05-09T14:35:35.481Z,98516.06
2024-05-09T14:38:03.426Z,98515.97
2024-05-09T14:40:40.519Z,98506.84
2024-05-09T14:43:14.810Z,98501.28
2024-05-09T14:45:42.796Z,98500.53
2024-05-09T14:48:10.961Z,98501.72
2024-05-09T14:50:39.868Z,98496.44
2024-05-09T14:53:12.057Z,98495.38
2024-05-09T14:55:40.748Z,98488.00
2024-05-09T14:58:10.396Z,98485.00
2024-05-09T15:00:44.786Z,98485.34
2024-05-09T15:03:15.367Z,98487.75
2024-05-09T15:05:42.524Z,98482.19
2024-05-09T15:08:09.603Z,98486.69
2024-05-09T15:10:37.859Z,98485.53
2024-05-09T15:13:08.093Z,98479.69
2024-05-09T15:15:37.262Z,98477.53
2024-05-09T15:18:06.325Z,98481.81
2024-05-09T15:20:36.399Z,98470.09
2024-05-09T15:23:05.699Z,98475.00
2024-05-09T15:25:33.871Z,98478.88
2024-05-09T15:28:01.169Z,98470.81
2024-05-09T15:30:31.580Z,98471.31
2024-05-09T15:33:01.312Z,98472.75
2024-05-09T15:35:28.688Z,98471.47
2024-05-09T15:37:55.988Z,98470.34
2024-05-09T15:40:31.667Z,98468.22
2024-05-09T15:43:06.190Z,98461.44
2024-05-09T15:45:34.366Z,98454.41
2024-05-09T15:48:03.119Z,98458.41
2024-05-09T15:50:37.457Z,98462.31
2024-05-09T15:53:09.225Z,98466.25
2024-05-09T15:55:36.965Z,98467.50
2024-05-09T15:58:05.260Z,98452.88
2024-05-09T16:00:38.470Z,98463.56
2024-05-09T16:03:12.204Z,98464.03
2024-05-09T16:05:41.009Z,98455.56
2024-05-09T16:08:08.680Z,98460.13
2024-05-09T16:10:37.068Z,98459.06
2024-05-09T16:13:05.194Z,98458.66
2024-05-09T16:15:32.408Z,98449.66
2024-05-09T16:18:00.743Z,98455.16
2024-05-09T16:20:37.310Z,98456.03
2024-05-09T16:23:08.484Z,98455.28
2024-05-09T16:25:35.858Z,98464.91
2024-05-09T16:28:08.342Z,98454.28
2024-05-09T16:30:38.192Z,98448.44
2024-05-09T16:33:06.303Z,98451.94
2024-05-09T16:35:34.982Z,98454.69
2024-05-09T16:38:04.080Z,98455.28
2024-05-09T16:40:37.923Z,98455.00
2024-05-09T16:43:11.921Z,98456.81
2024-05-09T16:45:41.147Z,98454.59
2024-05-09T16:48:09.306Z,98455.91
2024-05-09T16:50:36.816Z,98458.66
2024-05-09T16:53:05.896Z,98459.09
2024-05-09T16:55:33.818Z,98459.00
2024-05-09T16:58:02.175Z,98460.44
2024-05-09T17:00:39.198Z,98453.94
2024-05-09T17:03:12.704Z,98454.97
2024-05-09T17:05:41.384Z,98449.91
2024-05-09T17:08:08.855Z,98450.47
2024-05-09T17:10:36.711Z,98453.50
2024-05-09T17:13:06.249Z,98451.69
2024-05-09T17:15:34.970Z,98452.53
2024-05-09T17:18:03.080Z,98457.66
2024-05-09T17:20:34.494Z,98455.47
2024-05-09T17:23:05.866Z,98456.94
2024-05-09T17:25:34.158Z,98462.13
2024-05-09T17:28:06.916Z,98458.25
2024-05-09T17:30:37.907Z,98453.22
2024-05-09T17:33:09.012Z,98458.59
2024-05-09T17:35:39.485Z,98449.78
2024-05-09T17:38:09.088Z,98450.09
2024-05-09T17:40:37.978Z,98450.63
2024-05-09T17:43:08.811Z,98454.69
2024-05-09T17:45:39.143Z,98456.75
2024-05-09T17:48:14.248Z,98454.44
2024-05-09T17:50:43.635Z,98449.13
2024-05-09T17:53:11.168Z,98452.75
2024-05-09T17:55:39.412Z,98452.03
2024-05-09T17:58:09.975Z,98449.03
2024-05-09T18:00:41.331Z,98451.88
2024-05-09T18:03:14.030Z,98452.69
2024-05-09T18:05:45.627Z,98445.28
2024-05-09T18:08:16.079Z,98450.94
2024-05-09T18:10:49.454Z,98453.31
2024-05-09T18:13:17.302Z,98445.72
2024-05-09T18:15:47.302Z,98445.75
2024-05-09T18:18:16.727Z,98446.53
2024-05-09T18:20:45.847Z,98452.41
2024-05-09T18:23:19.117Z,98442.22
2024-05-09T18:25:49.683Z,98446.56
2024-05-09T18:28:19.287Z,98447.88
2024-05-09T18:30:46.407Z,98445.13
2024-05-09T18:33:14.046Z,98451.31
2024-05-09T18:35:45.207Z,98444.44
2024-05-09T18:38:19.917Z,98451.38
2024-05-09T18:40:49.974Z,98452.66
2024-05-09T18:43:17.422Z,98461.84
2024-05-09T18:45:51.554Z,98456.50
2024-05-09T18:48:18.850Z,98459.34
2024-05-09T18:50:45.967Z,98463.16
2024-05-09T18:53:14.224Z,98462.38
2024-05-09T18:55:43.862Z,98466.19
2024-05-09T18:58:11.317Z,98471.03
2024-05-09T19:00:41.114Z,98467.97
2024-05-09T19:03:12.754Z,98476.09
2024-05-09T19:05:43.559Z,98481.44
2024-05-09T19:08:11.804Z,98485.53
2024-05-09T19:10:39.555Z,98488.53
2024-05-09T19:13:11.657Z,98485.44
2024-05-09T19:15:41.952Z,98487.22
2024-05-09T19:18:11.412Z,98488.19
2024-05-09T19:20:39.976Z,98493.28
2024-05-09T19:23:09.878Z,98493.78
2024-05-09T19:25:36.988Z,98494.78
2024-05-09T19:28:05.168Z,98502.41
2024-05-09T19:30:38.899Z,98496.50
2024-05-09T19:33:13.503Z,98501.31
2024-05-09T19:35:42.079Z,98509.69
2024-05-09T19:38:09.120Z,98509.88
2024-05-09T19:40:36.488Z,98508.31
2024-05-09T19:43:05.696Z,98508.28
2024-05-09T19:45:35.074Z,98510.28
2024-05-09T19:48:03.750Z,98507.47
2024-05-09T19:50:37.794Z,98513.22
2024-05-09T19:53:10.686Z,98511.94
2024-05-09T19:55:38.113Z,98509.84
2024-05-09T19:58:07.155Z,98510.28
2024-05-09T20:00:38.357Z,98519.13
2024-05-09T20:03:10.380Z,98520.38
2024-05-09T20:05:40.290Z,98520.88
2024-05-09T20:08:07.927Z,98523.69
2024-05-09T20:10:36.233Z,98515.94
2024-05-09T20:13:06.597Z,98518.69
2024-05-09T20:15:35.699Z,98518.69
2024-05-09T20:18:03.317Z,98515.84
2024-05-09T20:20:37.442Z,98517.06
2024-05-09T20:23:08.882Z,98515.75
2024-05-09T20:25:35.987Z,98520.53
2024-05-09T20:28:03.085Z,98515.09
2024-05-09T20:30:32.949Z,98517.84
2024-05-09T20:33:08.650Z,98517.03
2024-05-09T20:35:36.868Z,98518.22
2024-05-09T20:38:04.479Z,98513.56
2024-05-09T20:40:35.902Z,98521.41
2024-05-09T20:43:07.256Z,98519.59
2024-05-09T20:45:34.875Z,98517.00
2024-05-09T20:48:03.545Z,98509.31
2024-05-09T20:50:38.443Z,98511.34
2024-05-09T20:53:14.008Z,98519.97
2024-05-09T20:55:44.921Z,98515.34
2024-05-09T20:58:12.708Z,98516.81
2024-05-09T21:00:45.498Z,98518.47
2024-05-09T21:03:16.374Z,98507.75
2024-05-09T21:05:44.380Z,98522.38
2024-05-09T21:08:11.623Z,98517.22
2024-05-09T21:10:39.136Z,98517.44
2024-05-09T21:13:07.278Z,98524.25
2024-05-09T21:15:35.634Z,98518.59
2024-05-09T21:18:03.568Z,98525.16
2024-05-09T21:20:37.306Z,98520.28
2024-05-09T21:23:08.807Z,98511.63
2024-05-09T21:25:36.057Z,98514.81
2024-05-09T21:28:21.538Z,98524.66
2024-05-09T21:30:51.640Z,98519.28
2024-05-09T21:33:19.267Z,98517.25
2024-05-09T21:35:49.456Z,98521.28
2024-05-09T21:38:16.537Z,98517.16
2024-05-09T21:40:44.341Z,98516.59
2024-05-09T21:43:22.463Z,98517.28
2024-05-09T21:45:49.623Z,98522.38
2024-05-09T21:48:16.642Z,98518.22
2024-05-09T21:50:43.708Z,98520.44
2024-05-09T21:53:13.213Z,98521.41
2024-05-09T21:55:43.488Z,98520.81
2024-05-09T21:58:15.019Z,98517.75
2024-05-09T22:00:45.577Z,98519.56
2024-05-09T22:03:12.945Z,98519.00
2024-05-09T22:05:45.088Z,98521.41
2024-05-09T22:08:13.275Z,98517.38
2024-05-09T22:10:40.591Z,98521.63
2024-05-09T22:13:08.906Z,98513.25
2024-05-09T22:15:38.497Z,98519.50
2024-05-09T22:18:08.601Z,98522.22
2024-05-09T22:20:39.080Z,98515.88
2024-05-09T22:23:08.268Z,98516.81
2024-05-09T22:25:37.260Z,98515.28
2024-05-09T22:28:05.391Z,98515.47
2024-05-09T22:30:37.171Z,98506.03
2024-05-09T22:33:24.498Z,98515.19
2024-05-09T22:35:52.686Z,98509.50
2024-05-09T22:38:19.661Z,98512.28
2024-05-09T22:40:56.382Z,98517.97
2024-05-09T22:43:24.967Z,98516.22
2024-05-09T22:45:55.610Z,98520.75
2024-05-09T22:48:29.691Z,98519.69
2024-05-09T22:50:56.852Z,98519.41
2024-05-09T22:53:27.747Z,98514.03
2024-05-09T22:55:54.826Z,98512.78
2024-05-09T22:58:24.419Z,98513.44
2024-05-09T23:00:52.206Z,98508.53
2024-05-09T23:03:21.783Z,98507.94
2024-05-09T23:05:51.000Z,98516.69
2024-05-09T23:08:25.381Z,98503.91
2024-05-09T23:10:52.399Z,98507.16
2024-05-09T23:13:19.625Z,98510.91
2024-05-09T23:15:50.652Z,98507.53
2024-05-09T23:18:19.956Z,98499.66
2024-05-09T23:20:46.984Z,98502.31
2024-05-09T23:23:13.977Z,98502.97
2024-05-09T23:25:47.736Z,98493.06
2024-05-09T23:28:14.810Z,98498.06
2024-05-09T23:30:42.356Z,98493.47
2024-05-09T23:33:13.703Z,98497.66
2024-05-09T23:35:42.334Z,98496.13
2024-05-09T23:38:09.265Z,98494.47
2024-05-09T23:40:39.705Z,98492.34
2024-05-09T23:43:10.746Z,98499.31
2024-05-09T23:45:38.340Z,98497.81
2024-05-09T23:48:06.475Z,98495.94
2024-05-09T23:50:36.913Z,98492.09
2024-05-09T23:53:07.982Z,98503.06
2024-05-09T23:55:36.363Z,98499.97
2024-05-09T23:58:03.524Z,98495.53
